Time;durP1;ratioP1;P1;durP2;ratioP2;P2;SDS_P1;SDS_P2;PMS_P1;PMS_P2;Temp;Humidity;BMP_temperature;BMP_pressure;BME280_temperature;BME280_humidity;BME280_pressure;Samples;Min_cycle;Max_cycle;Signal;HPM_P1;HPM_P2
2023/03/29 00:01:58;;;;;;;8.23;5.60;;;4.50;81.20;;;;;;5081878;28;20197;-86
2023/03/29 00:04:26;;;;;;;4.07;3.37;;;4.50;74.60;;;;;;5075844;28;20204;-83
2023/03/29 00:06:53;;;;;;;4.70;2.30;;;4.40;72.90;;;;;;5083904;28;20227;-87
2023/03/29 00:09:20;;;;;;;4.57;3.83;;;4.30;71.10;;;;;;5081251;28;20193;-80
2023/03/29 00:11:48;;;;;;;3.00;2.50;;;4.10;78.00;;;;;;5082231;28;20192;-82
2023/03/29 00:14:15;;;;;;;2.77;2.00;;;4.30;72.80;;;;;;5084162;28;20239;-81
2023/03/29 00:16:43;;;;;;;2.17;1.90;;;4.50;74.00;;;;;;5089943;28;20730;-80
2023/03/29 00:19:10;;;;;;;2.63;2.43;;;4.40;73.30;;;;;;5084805;28;20201;-80
2023/03/29 00:21:37;;;;;;;2.53;2.00;;;4.50;73.80;;;;;;5080223;28;20201;-80
2023/03/29 00:24:04;;;;;;;7.10;4.20;;;4.50;71.70;;;;;;5084602;28;20636;-80
2023/03/29 00:26:31;;;;;;;1.60;1.50;;;4.70;74.40;;;;;;5082218;28;20198;-82
2023/03/29 00:28:59;;;;;;;5.47;2.87;;;4.80;69.60;;;;;;5077793;28;20203;-81
2023/03/29 00:31:26;;;;;;;1.70;1.50;;;4.90;74.80;;;;;;5075594;28;20201;-80
2023/03/29 00:33:53;;;;;;;1.77;1.50;;;4.90;73.80;;;;;;5081741;28;20726;-80
2023/03/29 00:36:21;;;;;;;4.30;3.73;;;5.00;75.50;;;;;;5081136;28;20200;-81
2023/03/29 00:38:47;;;;;;;3.47;2.63;;;5.00;78.30;;;;;;5085186;28;20230;-80
2023/03/29 00:41:14;;;;;;;4.60;2.77;;;5.20;82.50;;;;;;5088126;28;20205;-80
2023/03/29 00:43:52;;;;;;;4.10;1.57;;;5.30;84.10;;;;;;5073135;28;20205;-81
2023/03/29 00:46:20;;;;;;;1.97;1.40;;;5.40;84.10;;;;;;5081464;28;20208;-80
2023/03/29 00:48:47;;;;;;;1.70;1.60;;;5.20;84.70;;;;;;5075214;28;20202;-82
2023/03/29 00:51:17;;;;;;;4.87;4.07;;;5.20;86.20;;;;;;5082809;28;20204;-80
2023/03/29 00:53:48;;;;;;;5.93;4.53;;;5.10;87.20;;;;;;5090938;28;20779;-79
2023/03/29 00:56:21;;;;;;;2.33;1.60;;;5.20;85.90;;;;;;5082938;28;20201;-81
2023/03/29 00:58:52;;;;;;;10.03;7.40;;;5.10;86.40;;;;;;5073394;28;20863;-80
2023/03/29 01:01:27;;;;;;;3.43;2.93;;;5.10;87.60;;;;;;5089316;28;20212;-81
2023/03/29 01:04:01;;;;;;;2.63;2.10;;;5.10;89.00;;;;;;5081836;28;20295;-80
2023/03/29 01:06:32;;;;;;;1.93;1.50;;;5.00;90.40;;;;;;5078049;28;20204;-80
2023/03/29 01:09:06;;;;;;;2.03;1.30;;;5.10;90.70;;;;;;5080516;28;20196;-83
2023/03/29 01:11:38;;;;;;;8.87;5.63;;;5.10;91.40;;;;;;5084716;28;20633;-82
2023/03/29 01:14:07;;;;;;;22.87;17.10;;;4.90;92.40;;;;;;5079700;28;20209;-81
2023/03/29 01:16:38;;;;;;;2.13;1.60;;;4.90;93.80;;;;;;5085986;28;20205;-80
2023/03/29 01:19:07;;;;;;;15.63;12.30;;;4.80;93.20;;;;;;5082344;28;20225;-80
2023/03/29 01:21:38;;;;;;;13.90;8.57;;;4.60;94.60;;;;;;5089078;28;20557;-80
2023/03/29 01:24:31;;;;;;;20.03;15.57;;;4.90;95.10;;;;;;5082714;28;20204;-81
2023/03/29 01:27:05;;;;;;;15.47;10.47;;;4.90;95.10;;;;;;5078522;28;20292;-84
2023/03/29 01:29:36;;;;;;;1.60;1.50;;;4.90;95.10;;;;;;5064518;28;20188;-80
2023/03/29 01:32:08;;;;;;;3.43;3.13;;;4.90;94.70;;;;;;5081794;28;20201;-80
2023/03/29 01:34:40;;;;;;;32.57;23.57;;;4.80;95.00;;;;;;5079038;28;20221;-82
2023/03/29 01:37:11;;;;;;;18.83;13.77;;;5.00;95.70;;;;;;5082506;28;20208;-80
2023/03/29 01:39:38;;;;;;;1.63;1.40;;;5.00;95.10;;;;;;5085276;28;20228;-81
2023/03/29 01:42:14;;;;;;;8.97;6.13;;;4.80;95.30;;;;;;5091647;28;20645;-84
2023/03/29 01:44:49;;;;;;;11.43;8.37;;;4.80;95.60;;;;;;5083906;28;20197;-80
2023/03/29 01:47:26;;;;;;;3.10;2.60;;;5.00;96.40;;;;;;5082920;28;20249;-80
2023/03/29 01:50:00;;;;;;;1.77;1.60;;;5.00;95.40;;;;;;5080211;28;20204;-81
2023/03/29 01:52:35;;;;;;;2.77;1.80;;;4.80;95.50;;;;;;5077016;28;20200;-82
2023/03/29 01:55:07;;;;;;;4.40;2.63;;;4.90;96.00;;;;;;5079186;28;20212;-82
2023/03/29 01:57:36;;;;;;;1.67;1.40;;;5.00;95.80;;;;;;5078835;28;20188;-81
2023/03/29 02:00:10;;;;;;;1.47;1.37;;;5.00;95.70;;;;;;5081508;28;20250;-80
2023/03/29 02:02:43;;;;;;;15.50;11.40;;;4.70;96.00;;;;;;5079769;28;20661;-83
2023/03/29 02:05:11;;;;;;;16.07;11.90;;;4.70;97.30;;;;;;5080031;28;20204;-83
2023/03/29 02:07:39;;;;;;;10.43;8.33;;;4.90;96.90;;;;;;5072694;28;20200;-82
2023/03/29 02:10:10;;;;;;;6.17;4.77;;;4.90;96.60;;;;;;5080811;28;20198;-81
2023/03/29 02:12:37;;;;;;;2.20;1.77;;;4.80;96.30;;;;;;5064661;28;20240;-81
2023/03/29 02:15:11;;;;;;;1.90;1.30;;;4.70;96.00;;;;;;5071552;28;20213;-80
2023/03/29 02:17:38;;;;;;;1.80;1.30;;;4.60;96.20;;;;;;5095958;28;20187;-82
2023/03/29 02:20:13;;;;;;;5.07;3.97;;;4.40;96.90;;;;;;5080866;28;20193;-86
2023/03/29 02:22:47;;;;;;;1.57;1.27;;;4.50;97.60;;;;;;5084951;28;20269;-80
2023/03/29 02:25:14;;;;;;;4.83;3.80;;;4.50;96.80;;;;;;5091151;28;20195;-82
2023/03/29 02:27:41;;;;;;;6.37;4.60;;;4.50;96.80;;;;;;5074992;28;20198;-82
2023/03/29 02:30:12;;;;;;;9.20;7.67;;;4.70;97.40;;;;;;5078768;28;20192;-84
2023/03/29 02:32:48;;;;;;;2.10;1.30;;;4.90;97.70;;;;;;5080871;28;20193;-83
2023/03/29 02:35:21;;;;;;;11.80;7.60;;;4.70;96.50;;;;;;5081826;28;20267;-83
2023/03/29 02:37:51;;;;;;;10.40;7.13;;;4.70;97.30;;;;;;5081639;28;20198;-85
2023/03/29 02:40:19;;;;;;;10.10;7.03;;;4.60;97.00;;;;;;5082329;28;20629;-82
2023/03/29 02:42:48;;;;;;;4.53;3.00;;;4.70;96.90;;;;;;5077580;28;20192;-82
2023/03/29 02:45:18;;;;;;;1.77;1.57;;;4.60;96.60;;;;;;5086919;28;20678;-80
2023/03/29 02:47:50;;;;;;;2.80;1.40;;;4.40;96.20;;;;;;5080922;28;20205;-80
2023/03/29 02:50:17;;;;;;;4.17;3.30;;;4.20;96.70;;;;;;5072605;28;20660;-80
2023/03/29 02:52:51;;;;;;;2.37;2.00;;;4.30;97.20;;;;;;5077025;28;20205;-79
2023/03/29 02:55:20;;;;;;;11.63;8.17;;;4.40;96.80;;;;;;5080901;28;20219;-79
2023/03/29 02:57:46;;;;;;;6.20;4.33;;;4.30;96.90;;;;;;5076441;28;20200;-81
2023/03/29 03:00:17;;;;;;;5.67;3.10;;;4.40;96.90;;;;;;5076402;28;20213;-79
2023/03/29 03:02:45;;;;;;;1.47;1.20;;;4.40;96.70;;;;;;5076909;28;20263;-79
2023/03/29 03:05:12;;;;;;;2.20;1.90;;;4.30;96.50;;;;;;5071315;28;20212;-80
2023/03/29 03:07:39;;;;;;;2.00;1.47;;;4.30;96.70;;;;;;5085464;28;20205;-80
2023/03/29 03:10:08;;;;;;;5.27;4.13;;;4.20;96.40;;;;;;5077068;28;20554;-80
2023/03/29 03:12:36;;;;;;;10.13;8.60;;;4.10;97.10;;;;;;5083127;28;20204;-82
2023/03/29 03:15:03;;;;;;;2.43;2.20;;;4.30;97.70;;;;;;5078451;28;20217;-83
2023/03/29 03:17:32;;;;;;;2.50;1.40;;;4.30;97.20;;;;;;5080106;28;20192;-80
2023/03/29 03:19:58;;;;;;;3.67;2.00;;;4.30;96.80;;;;;;5080475;28;20282;-79
2023/03/29 03:22:26;;;;;;;1.80;1.63;;;4.20;96.80;;;;;;5093507;28;20306;-80
2023/03/29 03:24:52;;;;;;;9.07;7.17;;;4.30;97.20;;;;;;5085150;28;20225;-80
2023/03/29 03:27:19;;;;;;;4.17;2.90;;;4.30;97.30;;;;;;5087050;28;20200;-81
2023/03/29 03:29:47;;;;;;;4.67;3.23;;;4.40;96.40;;;;;;5082433;28;20200;-80
2023/03/29 03:32:14;;;;;;;2.00;1.40;;;4.40;96.60;;;;;;5082592;28;20719;-79
2023/03/29 03:34:42;;;;;;;2.23;2.00;;;4.40;95.80;;;;;;5084087;28;20224;-79
2023/03/29 03:37:10;;;;;;;1.60;1.33;;;4.20;96.10;;;;;;5082619;28;20208;-81
2023/03/29 03:39:37;;;;;;;1.50;1.40;;;4.20;96.20;;;;;;5076942;28;20189;-79
2023/03/29 03:42:04;;;;;;;4.67;3.77;;;4.00;96.40;;;;;;5076881;28;20205;-82
2023/03/29 03:44:31;;;;;;;2.83;1.67;;;4.10;97.50;;;;;;5088116;28;20204;-81
2023/03/29 03:46:58;;;;;;;4.20;1.60;;;4.00;96.80;;;;;;5063270;28;20200;-80
2023/03/29 03:49:25;;;;;;;1.53;1.20;;;4.00;97.00;;;;;;5098627;28;20208;-81
2023/03/29 03:51:53;;;;;;;2.97;2.70;;;4.00;97.20;;;;;;5088281;28;20637;-80
2023/03/29 03:54:20;;;;;;;8.10;5.53;;;3.90;97.40;;;;;;5088961;28;20220;-79
2023/03/29 03:56:47;;;;;;;5.20;4.40;;;3.80;97.80;;;;;;5076756;28;20204;-79
2023/03/29 03:59:14;;;;;;;5.27;4.43;;;3.80;98.00;;;;;;5084191;28;20925;-80
2023/03/29 04:01:42;;;;;;;8.50;5.03;;;3.80;97.90;;;;;;5086265;28;20211;-80
2023/03/29 04:04:09;;;;;;;3.67;2.80;;;3.80;98.20;;;;;;5085413;28;20199;-79
2023/03/29 04:06:36;;;;;;;3.23;2.37;;;4.00;98.20;;;;;;5087802;28;20577;-79
2023/03/29 04:09:05;;;;;;;3.27;2.70;;;3.90;97.40;;;;;;5087985;28;20192;-79
2023/03/29 04:11:32;;;;;;;1.50;1.40;;;4.00;97.80;;;;;;5078241;28;20612;-81
2023/03/29 04:13:58;;;;;;;6.77;4.67;;;4.00;97.50;;;;;;5085431;28;20198;-80
2023/03/29 04:16:26;;;;;;;5.03;3.10;;;4.00;98.10;;;;;;5079365;28;20202;-82
2023/03/29 04:18:52;;;;;;;2.20;1.50;;;3.90;97.50;;;;;;5093291;28;20200;-79
2023/03/29 04:21:20;;;;;;;2.03;1.63;;;3.90;97.20;;;;;;5084845;28;20219;-82
2023/03/29 04:23:47;;;;;;;2.33;1.60;;;3.80;97.40;;;;;;5087524;28;20243;-79
2023/03/29 04:26:16;;;;;;;4.40;3.40;;;3.70;97.60;;;;;;5078791;28;20211;-81
2023/03/29 04:28:43;;;;;;;4.37;3.93;;;3.70;98.80;;;;;;5079881;28;20200;-83
2023/03/29 04:31:10;;;;;;;3.90;2.80;;;4.10;99.30;;;;;;5090961;28;20208;-81
2023/03/29 04:33:38;;;;;;;1.70;1.50;;;4.20;98.50;;;;;;5069419;28;20216;-88
2023/03/29 04:36:05;;;;;;;1.43;1.33;;;4.40;97.80;;;;;;5075348;28;22039;-81
2023/03/29 04:38:34;;;;;;;1.63;1.37;;;4.30;96.80;;;;;;5082533;28;20208;-82
2023/03/29 04:41:02;;;;;;;2.17;1.40;;;4.10;97.50;;;;;;5061860;28;20198;-81
2023/03/29 04:43:31;;;;;;;3.07;1.40;;;4.00;97.80;;;;;;5085823;28;20280;-80
2023/03/29 04:45:58;;;;;;;2.83;1.77;;;4.00;98.20;;;;;;5079406;28;20197;-81
2023/03/29 04:48:25;;;;;;;1.50;1.40;;;4.00;98.50;;;;;;5079476;28;20209;-81
2023/03/29 04:50:53;;;;;;;3.17;1.83;;;4.00;98.40;;;;;;5082843;28;20225;-83
2023/03/29 04:53:21;;;;;;;1.57;1.47;;;4.00;98.70;;;;;;5088732;28;20299;-84
2023/03/29 04:55:48;;;;;;;1.60;1.20;;;4.10;98.60;;;;;;5094925;28;20242;-88
2023/03/29 04:58:14;;;;;;;1.90;1.33;;;4.10;98.70;;;;;;5080367;28;20600;-82
2023/03/29 05:00:42;;;;;;;1.80;1.70;;;4.20;98.70;;;;;;5078611;28;20203;-82
2023/03/29 05:03:13;;;;;;;3.93;3.13;;;4.20;98.80;;;;;;5086734;28;20208;-82
2023/03/29 05:05:40;;;;;;;1.50;1.30;;;4.50;99.00;;;;;;5085728;28;20197;-82
2023/03/29 05:08:08;;;;;;;3.63;1.87;;;4.60;98.00;;;;;;5079611;28;20224;-83
2023/03/29 05:10:35;;;;;;;3.13;1.53;;;4.50;97.60;;;;;;5081158;28;20284;-84
2023/03/29 05:13:02;;;;;;;2.73;1.67;;;4.50;97.90;;;;;;5079111;28;20197;-84
2023/03/29 05:15:29;;;;;;;2.13;1.70;;;4.60;98.10;;;;;;5080126;28;20221;-84
2023/03/29 05:17:59;;;;;;;1.40;1.30;;;4.80;98.30;;;;;;5096245;28;20204;-85
2023/03/29 05:20:27;;;;;;;2.20;1.37;;;4.90;97.90;;;;;;5092442;28;20268;-84
2023/03/29 05:22:54;;;;;;;1.90;1.80;;;5.10;97.70;;;;;;5090803;28;20220;-85
2023/03/29 05:25:21;;;;;;;1.20;1.10;;;5.10;97.70;;;;;;5082598;28;20201;-84
2023/03/29 05:27:47;;;;;;;1.80;1.27;;;5.30;97.20;;;;;;5084489;28;20196;-85
2023/03/29 05:30:15;;;;;;;2.83;1.37;;;5.50;96.60;;;;;;5083340;28;20209;-88
2023/03/29 05:32:42;;;;;;;1.63;1.30;;;5.70;95.60;;;;;;5091191;28;20200;-87
2023/03/29 05:35:11;;;;;;;1.67;1.33;;;5.80;95.40;;;;;;5073843;28;20221;-83
2023/03/29 05:37:38;;;;;;;1.40;1.13;;;6.00;95.10;;;;;;5077120;28;20208;-83
2023/03/29 05:40:09;;;;;;;1.63;1.30;;;6.10;95.00;;;;;;5080216;28;21040;-85
2023/03/29 05:42:36;;;;;;;1.57;1.07;;;6.10;94.80;;;;;;5082027;28;20228;-83
2023/03/29 05:45:03;;;;;;;2.60;1.60;;;6.10;94.90;;;;;;5082125;28;20201;-83
2023/03/29 05:47:31;;;;;;;1.70;1.30;;;6.20;94.80;;;;;;5078011;28;20211;-87
2023/03/29 05:49:58;;;;;;;3.78;1.48;;;6.20;94.80;;;;;;5077742;28;20208;-85
2023/03/29 05:52:26;;;;;;;1.67;1.10;;;6.30;94.70;;;;;;5097964;28;20557;-85
2023/03/29 05:54:53;;;;;;;2.38;2.17;;;6.30;94.30;;;;;;5081917;28;20302;-83
2023/03/29 05:57:20;;;;;;;2.10;1.58;;;6.40;94.80;;;;;;5074403;28;20676;-85
2023/03/29 05:59:47;;;;;;;2.78;1.00;;;6.50;94.10;;;;;;5081845;28;20247;-85
2023/03/29 06:02:14;;;;;;;1.88;1.10;;;6.60;93.60;;;;;;5086911;28;20199;-85
2023/03/29 06:04:42;;;;;;;4.22;1.40;;;6.60;93.40;;;;;;5088636;28;20232;-85
2023/03/29 06:07:11;;;;;;;1.73;1.20;;;6.60;93.50;;;;;;5091855;28;20217;-84
2023/03/29 06:09:39;;;;;;;3.60;1.15;;;6.70;93.20;;;;;;5087735;28;20193;-85
2023/03/29 06:12:09;;;;;;;2.20;1.20;;;6.70;93.40;;;;;;5088907;28;20650;-85
2023/03/29 06:14:36;;;;;;;1.63;0.95;;;6.80;92.70;;;;;;5089566;28;20205;-84
2023/03/29 06:17:03;;;;;;;1.27;1.15;;;6.80;92.20;;;;;;5093784;28;20216;-86
2023/03/29 06:19:30;;;;;;;2.60;1.23;;;6.90;92.60;;;;;;5086624;28;20234;-83
2023/03/29 06:21:57;;;;;;;3.65;1.40;;;6.90;91.90;;;;;;5076897;28;20378;-84
2023/03/29 06:24:24;;;;;;;1.88;1.40;;;7.00;91.50;;;;;;5087167;28;20203;-82
2023/03/29 06:26:53;;;;;;;1.80;1.55;;;7.00;91.90;;;;;;5092934;28;20212;-84
2023/03/29 06:29:19;;;;;;;2.92;1.65;;;7.00;92.00;;;;;;5076231;28;20201;-83
2023/03/29 06:31:46;;;;;;;0.90;0.90;;;7.10;91.80;;;;;;5079179;28;20987;-82
2023/03/29 06:34:15;;;;;;;2.00;1.23;;;7.10;91.30;;;;;;5084457;28;20196;-83
2023/03/29 06:36:42;;;;;;;1.63;1.00;;;7.10;91.30;;;;;;5100557;28;20227;-81
2023/03/29 06:39:09;;;;;;;1.50;1.20;;;7.10;91.30;;;;;;5094077;28;20208;-84
2023/03/29 06:41:37;;;;;;;3.92;1.15;;;7.20;91.10;;;;;;5088301;28;20288;-83
2023/03/29 06:44:05;;;;;;;2.45;1.27;;;7.20;91.00;;;;;;5083865;28;20594;-83
2023/03/29 06:46:33;;;;;;;1.50;1.23;;;7.20;91.00;;;;;;5084199;28;20193;-82
2023/03/29 06:49:00;;;;;;;4.35;1.50;;;7.30;90.90;;;;;;5076738;28;20193;-83
2023/03/29 06:51:28;;;;;;;1.23;1.10;;;7.40;90.60;;;;;;5083843;28;20243;-84
2023/03/29 06:53:55;;;;;;;2.65;1.40;;;7.40;90.10;;;;;;5080371;28;20200;-82
2023/03/29 06:56:22;;;;;;;1.80;1.17;;;7.50;90.10;;;;;;5090272;28;20211;-83
2023/03/29 06:58:50;;;;;;;2.92;1.33;;;7.50;90.10;;;;;;5096418;28;20193;-85
2023/03/29 07:01:18;;;;;;;3.65;1.17;;;7.60;88.80;;;;;;5093338;28;20565;-83
2023/03/29 07:03:46;;;;;;;3.28;1.50;;;7.70;89.70;;;;;;5089204;28;20196;-82
2023/03/29 07:06:15;;;;;;;5.30;1.10;;;7.80;89.90;;;;;;5092638;28;20597;-82
2023/03/29 07:08:43;;;;;;;1.52;1.30;;;7.90;87.50;;;;;;5090368;28;20200;-83
2023/03/29 07:11:12;;;;;;;1.42;1.25;;;8.00;85.80;;;;;;5089374;28;20251;-83
2023/03/29 07:13:41;;;;;;;1.55;1.00;;;8.10;87.20;;;;;;5080304;28;20254;-83
2023/03/29 07:16:11;;;;;;;2.63;1.23;;;8.20;85.50;;;;;;5084516;28;20307;-83
2023/03/29 07:18:40;;;;;;;1.65;1.05;;;8.50;84.70;;;;;;5093855;28;20736;-83
2023/03/29 07:21:08;;;;;;;4.18;1.40;;;8.70;83.10;;;;;;5091190;28;20197;-83
2023/03/29 07:23:35;;;;;;;2.13;1.25;;;8.80;81.20;;;;;;5087554;28;20240;-82
2023/03/29 07:26:02;;;;;;;2.55;1.30;;;8.90;78.80;;;;;;5090090;28;20215;-85
2023/03/29 07:28:29;;;;;;;3.25;1.40;;;9.10;79.30;;;;;;5049409;28;20208;-83
2023/03/29 07:31:03;;;;;;;1.95;1.20;;;9.40;77.70;;;;;;5075569;28;20216;-83
2023/03/29 07:33:30;;;;;;;5.18;1.33;;;9.50;74.40;;;;;;5088345;28;20607;-83
2023/03/29 07:35:58;;;;;;;2.30;1.02;;;9.60;74.50;;;;;;5103488;28;20224;-83
2023/03/29 07:38:25;;;;;;;2.55;1.27;;;9.70;69.80;;;;;;5087701;28;20204;-86
2023/03/29 07:40:53;;;;;;;2.60;0.98;;;9.70;69.50;;;;;;5088876;28;20201;-84
2023/03/29 07:43:20;;;;;;;1.75;1.10;;;9.80;69.20;;;;;;5087510;28;20197;-86
2023/03/29 07:45:47;;;;;;;1.15;1.00;;;10.10;67.30;;;;;;5088441;28;20199;-85
2023/03/29 07:48:14;;;;;;;3.72;1.30;;;10.10;60.80;;;;;;5078671;28;20196;-86
2023/03/29 07:50:42;;;;;;;2.20;1.20;;;10.20;62.50;;;;;;5085624;28;20228;-85
2023/03/29 07:53:10;;;;;;;2.58;1.13;;;10.30;58.80;;;;;;5096129;28;20250;-85
2023/03/29 07:55:41;;;;;;;1.60;1.13;;;10.30;61.20;;;;;;5092102;28;20240;-85
2023/03/29 07:58:08;;;;;;;3.40;1.40;;;10.10;58.70;;;;;;5088535;28;20201;-85
2023/03/29 08:00:35;;;;;;;2.08;1.35;;;9.90;62.10;;;;;;5081067;28;20200;-85
2023/03/29 08:03:02;;;;;;;1.92;1.13;;;9.90;63.20;;;;;;5087607;28;20204;-85
2023/03/29 08:05:29;;;;;;;1.20;1.10;;;9.80;62.00;;;;;;5074465;28;20208;-85
2023/03/29 08:07:56;;;;;;;3.28;1.30;;;9.80;63.20;;;;;;5068049;28;20204;-85
2023/03/29 08:10:25;;;;;;;2.08;1.20;;;9.90;64.00;;;;;;5092004;28;20200;-85
2023/03/29 08:12:52;;;;;;;1.85;1.10;;;10.10;59.60;;;;;;5092714;28;20590;-85
2023/03/29 08:15:19;;;;;;;1.95;1.23;;;10.30;58.90;;;;;;5081603;28;20198;-85
2023/03/29 08:17:46;;;;;;;2.55;1.17;;;10.30;54.20;;;;;;5093863;28;20204;-86
2023/03/29 08:20:15;;;;;;;2.33;1.20;;;10.40;56.40;;;;;;5083542;28;20197;-85
2023/03/29 08:22:42;;;;;;;2.17;1.05;;;10.50;53.60;;;;;;5069831;28;20591;-86
2023/03/29 08:25:10;;;;;;;3.17;1.33;;;10.60;54.60;;;;;;5094569;28;20215;-85
2023/03/29 08:27:39;;;;;;;2.38;1.10;;;10.40;53.20;;;;;;5082395;28;20288;-83
2023/03/29 08:30:08;;;;;;;7.43;1.60;;;10.30;53.30;;;;;;5086698;28;20193;-84
2023/03/29 08:32:35;;;;;;;9.73;4.30;;;10.40;53.60;;;;;;5081944;28;20193;-86
2023/03/29 08:35:03;;;;;;;6.18;3.53;;;10.30;52.70;;;;;;5092195;28;20277;-83
2023/03/29 08:37:30;;;;;;;3.92;2.45;;;10.40;55.90;;;;;;5087330;28;20728;-85
2023/03/29 08:39:57;;;;;;;4.45;2.80;;;10.30;52.60;;;;;;5059784;28;20205;-86
2023/03/29 08:42:49;;;;;;;9.60;7.18;;;10.30;52.00;;;;;;5076127;28;20207;-85
2023/03/29 08:45:25;;;;;;;5.22;4.00;;;10.20;53.60;;;;;;5069880;28;20203;-85
2023/03/29 08:47:58;;;;;;;4.38;1.38;;;10.20;53.00;;;;;;5089780;28;20545;-86
2023/03/29 08:50:32;;;;;;;4.53;1.48;;;10.20;53.00;;;;;;5099514;28;20208;-86
2023/03/29 08:53:04;;;;;;;4.68;2.95;;;10.30;53.10;;;;;;5084821;28;20925;-86
2023/03/29 08:55:36;;;;;;;4.28;2.58;;;10.40;54.30;;;;;;5100597;28;20763;-87
2023/03/29 08:58:07;;;;;;;3.28;1.80;;;10.60;52.90;;;;;;5092232;28;20204;-85
2023/03/29 09:00:40;;;;;;;2.63;1.23;;;11.00;50.10;;;;;;5062326;28;20240;-85
2023/03/29 09:03:15;;;;;;;3.45;1.13;;;11.40;48.10;;;;;;5105001;28;20907;-86
2023/03/29 09:05:47;;;;;;;1.92;1.20;;;11.50;48.20;;;;;;5068228;28;20656;-85
2023/03/29 09:08:16;;;;;;;4.07;1.85;;;11.50;45.10;;;;;;5084856;28;20196;-86
2023/03/29 09:10:46;;;;;;;4.15;1.35;;;11.60;44.50;;;;;;5058986;28;20287;-86
2023/03/29 09:13:30;;;;;;;4.30;2.17;;;11.50;43.10;;;;;;5075444;28;20195;-85
2023/03/29 09:16:07;;;;;;;1.73;1.20;;;11.50;44.90;;;;;;5086653;28;20232;-86
2023/03/29 09:18:41;;;;;;;4.13;3.50;;;11.50;48.20;;;;;;5089525;28;20625;-86
2023/03/29 09:21:16;;;;;;;5.20;2.97;;;11.50;47.10;;;;;;5083604;28;20185;-85
2023/03/29 09:24:09;;;;;;;2.53;1.50;;;11.50;45.20;;;;;;5086357;28;20238;-86
2023/03/29 09:26:41;;;;;;;5.97;3.38;;;11.40;44.70;;;;;;5090071;28;20201;-86
2023/03/29 09:29:22;;;;;;;6.57;2.55;;;11.50;44.80;;;;;;5077281;28;20645;-85
2023/03/29 09:31:51;;;;;;;2.50;1.30;;;11.70;48.40;;;;;;5089124;28;20203;-88
2023/03/29 09:34:22;;;;;;;4.85;2.17;;;12.00;47.00;;;;;;5091868;28;20196;-86
2023/03/29 09:36:53;;;;;;;3.75;2.55;;;12.10;39.70;;;;;;5088797;28;20204;-86
2023/03/29 09:39:22;;;;;;;2.90;1.40;;;12.20;41.60;;;;;;5100016;28;20199;-85
2023/03/29 09:41:52;;;;;;;4.10;1.40;;;12.20;41.20;;;;;;5087230;28;20203;-85
2023/03/29 09:44:23;;;;;;;2.30;1.20;;;12.00;37.70;;;;;;5082581;28;20208;-85
2023/03/29 09:46:55;;;;;;;2.83;1.30;;;11.90;41.30;;;;;;5090003;28;20193;-86
2023/03/29 09:49:30;;;;;;;2.28;1.50;;;11.80;38.30;;;;;;5081666;28;20184;-85
2023/03/29 09:52:01;;;;;;;3.15;1.40;;;11.80;39.20;;;;;;5094329;28;20234;-86
2023/03/29 09:54:28;;;;;;;1.73;1.30;;;11.70;39.50;;;;;;5082178;28;20189;-88
2023/03/29 09:56:55;;;;;;;4.65;1.60;;;11.70;39.40;;;;;;5092223;28;20225;-85
2023/03/29 09:59:22;;;;;;;2.78;1.50;;;11.70;42.50;;;;;;5080025;28;20630;-84
2023/03/29 10:01:49;;;;;;;2.80;1.40;;;11.90;40.00;;;;;;5087912;28;20197;-85
2023/03/29 10:04:17;;;;;;;2.10;1.42;;;12.30;38.40;;;;;;5089462;28;20223;-86
2023/03/29 10:06:48;;;;;;;2.42;1.40;;;12.50;38.30;;;;;;5100198;28;20200;-84
2023/03/29 10:09:17;;;;;;;1.50;1.13;;;12.60;36.60;;;;;;5078618;28;20193;-88
2023/03/29 10:11:49;;;;;;;2.47;1.30;;;12.60;36.30;;;;;;5078287;28;20278;-85
2023/03/29 10:14:18;;;;;;;2.35;1.30;;;12.50;33.30;;;;;;5083056;28;20204;-85
2023/03/29 10:16:46;;;;;;;2.42;1.30;;;12.60;34.70;;;;;;5098727;28;20792;-85
2023/03/29 10:19:33;;;;;;;2.70;1.30;;;12.80;32.60;;;;;;5089938;28;20649;-84
2023/03/29 10:22:01;;;;;;;1.73;1.00;;;12.80;31.70;;;;;;5085730;28;20221;-84
2023/03/29 10:24:28;;;;;;;3.75;1.48;;;12.80;32.70;;;;;;5076192;28;20201;-86
2023/03/29 10:26:59;;;;;;;2.67;1.13;;;12.80;32.50;;;;;;5077270;28;20921;-86
2023/03/29 10:29:27;;;;;;;3.80;1.40;;;12.90;32.70;;;;;;5081280;28;20189;-85
2023/03/29 10:31:55;;;;;;;2.58;1.50;;;13.00;31.90;;;;;;5075818;28;20235;-86
2023/03/29 10:34:26;;;;;;;3.70;1.25;;;13.20;32.90;;;;;;5089431;28;20200;-86
2023/03/29 10:36:58;;;;;;;3.03;1.40;;;13.30;30.20;;;;;;5075876;28;20215;-85
2023/03/29 10:39:28;;;;;;;1.40;1.20;;;13.20;31.40;;;;;;5075936;28;20591;-85
2023/03/29 10:41:55;;;;;;;2.00;1.42;;;13.00;30.20;;;;;;5078494;28;20650;-86
2023/03/29 10:44:28;;;;;;;4.07;1.40;;;12.90;30.70;;;;;;5084843;28;20197;-86
2023/03/29 10:46:55;;;;;;;3.50;1.40;;;13.00;30.40;;;;;;5072332;28;20237;-85
2023/03/29 10:49:24;;;;;;;7.93;2.35;;;13.20;29.80;;;;;;5076185;28;20192;-85
2023/03/29 10:51:52;;;;;;;2.67;1.88;;;13.60;30.40;;;;;;5084307;28;20667;-86
2023/03/29 10:54:23;;;;;;;11.10;7.90;;;13.70;29.30;;;;;;5082167;28;20208;-86
2023/03/29 10:56:53;;;;;;;4.57;1.52;;;13.80;26.80;;;;;;5085567;28;20228;-86
2023/03/29 10:59:31;;;;;;;5.22;2.97;;;13.90;27.00;;;;;;5080628;28;20192;-86
2023/03/29 11:02:22;;;;;;;5.28;1.98;;;13.90;26.90;;;;;;5084610;28;20207;-85
2023/03/29 11:04:58;;;;;;;2.05;1.70;;;13.70;26.80;;;;;;5064883;28;20192;-85
2023/03/29 11:07:30;;;;;;;9.23;6.43;;;13.80;26.90;;;;;;5073575;28;20196;-86
2023/03/29 11:10:11;;;;;;;3.22;2.33;;;13.80;27.80;;;;;;5081887;28;20185;-90
2023/03/29 11:12:48;;;;;;;6.35;3.50;;;13.80;26.80;;;;;;5078857;28;20782;-88
2023/03/29 11:15:30;;;;;;;3.67;1.38;;;13.90;26.90;;;;;;5087066;28;20196;-87
2023/03/29 11:18:11;;;;;;;4.05;1.50;;;13.90;26.90;;;;;;5085080;28;20240;-87
2023/03/29 11:20:45;;;;;;;5.90;3.05;;;13.90;26.90;;;;;;5074347;28;20189;-86
2023/03/29 11:23:25;;;;;;;3.17;2.70;;;14.00;27.00;;;;;;5077147;28;20248;-86
2023/03/29 11:26:04;;;;;;;4.57;3.45;;;14.00;24.70;;;;;;5082342;28;20556;-86
2023/03/29 11:28:39;;;;;;;2.80;1.30;;;14.00;23.40;;;;;;5086791;28;20538;-87
2023/03/29 11:31:13;;;;;;;3.88;1.50;;;14.20;26.70;;;;;;5087730;28;20216;-86
2023/03/29 11:33:51;;;;;;;3.63;1.58;;;14.30;25.40;;;;;;5080198;28;20691;-91
2023/03/29 11:36:25;;;;;;;4.68;1.45;;;14.60;22.80;;;;;;5081910;28;20197;-88
2023/03/29 11:39:03;;;;;;;2.25;1.60;;;14.70;22.40;;;;;;5086850;28;20193;-88
2023/03/29 11:41:32;;;;;;;2.25;1.58;;;14.90;20.90;;;;;;5074857;28;20192;-89
2023/03/29 11:44:03;;;;;;;3.42;2.83;;;15.00;21.10;;;;;;5079244;28;20193;-89
2023/03/29 11:46:33;;;;;;;4.07;1.33;;;15.00;21.50;;;;;;5079265;28;20555;-88
2023/03/29 11:49:05;;;;;;;3.35;1.30;;;14.90;21.50;;;;;;5087117;28;20197;-87
2023/03/29 11:51:37;;;;;;;1.85;1.20;;;14.80;21.40;;;;;;5087674;28;20205;-88
2023/03/29 11:54:08;;;;;;;4.53;2.10;;;14.70;21.90;;;;;;5066002;28;20201;-88
2023/03/29 11:56:40;;;;;;;5.55;1.60;;;14.80;20.70;;;;;;5085557;28;20193;-87
2023/03/29 11:59:13;;;;;;;1.98;1.35;;;14.70;20.90;;;;;;5072084;28;20237;-87
2023/03/29 12:01:45;;;;;;;4.10;1.35;;;14.70;22.00;;;;;;5070206;28;20210;-87
2023/03/29 12:04:21;;;;;;;2.50;1.30;;;14.70;20.00;;;;;;5089477;28;20287;-87
2023/03/29 12:06:55;;;;;;;6.03;4.10;;;14.60;20.60;;;;;;5078591;28;20200;-87
2023/03/29 12:09:29;;;;;;;3.45;1.48;;;14.70;21.70;;;;;;5081630;28;20575;-86
2023/03/29 12:12:06;;;;;;;4.63;1.83;;;14.70;20.50;;;;;;5087214;28;20591;-87
2023/03/29 12:14:45;;;;;;;4.28;1.50;;;14.80;19.80;;;;;;5090571;28;20284;-89
2023/03/29 12:17:16;;;;;;;14.63;10.88;;;14.90;19.80;;;;;;5086955;28;20298;-87
2023/03/29 12:19:49;;;;;;;9.43;7.05;;;15.00;20.30;;;;;;5076798;28;20190;-89
2023/03/29 12:22:17;;;;;;;3.15;1.50;;;15.30;20.90;;;;;;5063381;28;20217;-87
2023/03/29 12:24:49;;;;;;;1.67;1.20;;;15.30;19.20;;;;;;5081936;28;20227;-88
2023/03/29 12:27:25;;;;;;;4.72;1.73;;;15.20;19.00;;;;;;5081998;28;20855;-85
2023/03/29 12:30:22;;;;;;;6.00;4.57;;;15.00;18.10;;;;;;5089900;28;20207;-85
2023/03/29 12:33:02;;;;;;;4.10;3.67;;;14.90;19.20;;;;;;5093567;28;20177;-88
2023/03/29 12:35:37;;;;;;;2.78;1.50;;;14.80;19.60;;;;;;5087462;28;20306;-85
2023/03/29 12:38:19;;;;;;;6.28;1.70;;;14.70;18.80;;;;;;5083813;28;20215;-89
2023/03/29 12:40:48;;;;;;;3.40;2.17;;;14.70;18.20;;;;;;5075177;28;20196;-87
2023/03/29 12:43:22;;;;;;;3.03;1.40;;;14.70;19.40;;;;;;5093470;28;20208;-90
2023/03/29 12:45:53;;;;;;;7.68;4.03;;;14.70;19.20;;;;;;5074798;28;20585;-87
2023/03/29 12:48:23;;;;;;;1.58;1.20;;;14.80;19.60;;;;;;5082822;28;20193;-87
2023/03/29 12:50:52;;;;;;;4.70;1.65;;;14.70;18.50;;;;;;5091896;28;20213;-88
2023/03/29 12:53:23;;;;;;;2.47;1.55;;;14.50;18.50;;;;;;5087550;28;20204;-87
2023/03/29 12:55:56;;;;;;;10.38;7.93;;;14.40;19.70;;;;;;5076444;28;20236;-88
2023/03/29 12:58:38;;;;;;;1.30;1.20;;;14.30;20.40;;;;;;5074474;28;20223;-87
2023/03/29 13:01:07;;;;;;;3.38;2.50;;;14.40;19.50;;;;;;5091723;28;20662;-88
2023/03/29 13:03:56;;;;;;;3.08;2.00;;;14.40;19.60;;;;;;5085953;28;20208;-87
2023/03/29 13:06:32;;;;;;;2.03;1.40;;;14.50;19.60;;;;;;5082944;28;20192;-87
2023/03/29 13:09:04;;;;;;;3.10;1.65;;;14.50;19.60;;;;;;5084214;28;20189;-87